createdAt,value
2022-09-14T00:00:02.071Z,93
2022-09-14T00:01:24.639Z,93
2022-09-14T00:02:16.472Z,93
2022-09-14T00:03:23.012Z,93
2022-09-14T00:04:29.937Z,93
2022-09-14T00:05:37.114Z,93
2022-09-14T00:06:44.232Z,93
2022-09-14T00:07:51.366Z,93
2022-09-14T00:08:57.979Z,92
2022-09-14T00:10:05.051Z,92
2022-09-14T00:11:12.141Z,92
2022-09-14T00:12:18.677Z,92
2022-09-14T00:13:26.369Z,92
2022-09-14T00:14:32.937Z,92
2022-09-14T00:15:39.994Z,92
2022-09-14T00:16:47.352Z,92
2022-09-14T00:17:54.790Z,92
2022-09-14T00:19:01.379Z,93
2022-09-14T00:20:07.922Z,93
2022-09-14T00:21:15.053Z,93
2022-09-14T00:22:22.166Z,93
2022-09-14T00:23:29.221Z,93
2022-09-14T00:24:35.867Z,93
2022-09-14T00:25:42.880Z,93
2022-09-14T00:26:50.088Z,93
2022-09-14T00:27:57.129Z,93
2022-09-14T00:29:04.178Z,92
2022-09-14T00:30:11.365Z,93
2022-09-14T00:31:18.096Z,92
2022-09-14T00:32:25.005Z,92
2022-09-14T00:33:32.121Z,92
2022-09-14T00:34:40.748Z,92
2022-09-14T00:35:46.382Z,92
2022-09-14T00:38:00.064Z,92
2022-09-14T00:39:07.114Z,92
2022-09-14T00:41:21.782Z,92
2022-09-14T00:42:27.926Z,92
2022-09-14T00:43:35.102Z,92
2022-09-14T00:45:49.408Z,92
2022-09-14T00:46:56.226Z,92
2022-09-14T00:48:02.925Z,92
2022-09-14T00:49:10.076Z,92
2022-09-14T00:50:17.182Z,92
2022-09-14T00:51:24.389Z,92
2022-09-14T00:52:30.899Z,92
2022-09-14T00:53:37.971Z,92
2022-09-14T00:54:45.114Z,92
2022-09-14T00:55:52.717Z,93
2022-09-14T00:56:59.285Z,93
2022-09-14T00:58:05.892Z,93
2022-09-14T00:59:13.510Z,92
2022-09-14T01:00:20.086Z,92
2022-09-14T01:01:27.325Z,92
2022-09-14T01:02:34.508Z,92
2022-09-14T01:03:40.809Z,92
2022-09-14T01:04:47.939Z,93
2022-09-14T01:05:55.110Z,92
2022-09-14T01:07:02.241Z,92
2022-09-14T01:09:15.928Z,92
2022-09-14T01:10:22.989Z,92
2022-09-14T01:11:30.068Z,92
2022-09-14T01:12:37.188Z,92
2022-09-14T01:13:44.278Z,92
2022-09-14T01:14:50.893Z,92
2022-09-14T01:15:58.128Z,92
2022-09-14T01:17:05.087Z,92
2022-09-14T01:18:12.172Z,92
2022-09-14T01:19:19.298Z,92
2022-09-14T01:20:25.894Z,92
2022-09-14T01:21:34.057Z,92
2022-09-14T01:22:40.071Z,92
2022-09-14T01:23:47.247Z,92
2022-09-14T01:24:54.335Z,92
2022-09-14T01:26:01.182Z,92
2022-09-14T01:27:08.020Z,92
2022-09-14T01:28:15.089Z,92
2022-09-14T01:29:22.220Z,92
2022-09-14T01:30:29.346Z,91
2022-09-14T01:31:36.081Z,91
2022-09-14T01:32:42.977Z,91
2022-09-14T01:33:50.127Z,91
2022-09-14T01:34:57.228Z,91
2022-09-14T01:36:04.341Z,91
2022-09-14T01:37:10.941Z,91
2022-09-14T01:38:18.062Z,91
2022-09-14T01:39:25.171Z,91
2022-09-14T01:41:39.354Z,91
2022-09-14T01:42:46.970Z,91
2022-09-14T01:43:53.124Z,91
2022-09-14T01:45:00.153Z,91
2022-09-14T01:46:07.296Z,91
2022-09-14T01:47:14.313Z,91
2022-09-14T01:48:20.960Z,91
2022-09-14T01:49:28.006Z,91
2022-09-14T01:50:35.688Z,91
2022-09-14T01:51:42.274Z,91
2022-09-14T01:52:48.876Z,92
2022-09-14T01:53:55.981Z,92
2022-09-14T01:55:02.979Z,92
2022-09-14T01:56:10.183Z,92
2022-09-14T01:57:17.265Z,92
2022-09-14T01:58:23.802Z,92
2022-09-14T01:59:31.477Z,92
2022-09-14T02:00:38.125Z,92
2022-09-14T02:01:50.206Z,92
2022-09-14T02:02:52.242Z,92
2022-09-14T02:03:58.824Z,92
2022-09-14T02:05:05.891Z,92
2022-09-14T02:06:13.093Z,92
2022-09-14T02:07:20.159Z,92
2022-09-14T02:08:27.378Z,92
2022-09-14T02:09:33.853Z,92
2022-09-14T02:10:40.935Z,92
2022-09-14T02:11:48.259Z,92
2022-09-14T02:14:02.297Z,93
2022-09-14T02:15:08.873Z,93
2022-09-14T02:16:16.236Z,93
2022-09-14T02:17:23.358Z,93
2022-09-14T02:18:30.219Z,93
2022-09-14T02:19:37.316Z,93
2022-09-14T02:20:43.907Z,93
2022-09-14T02:22:58.148Z,93
2022-09-14T02:24:05.240Z,93
2022-09-14T02:25:12.332Z,93
2022-09-14T02:26:18.880Z,93
2022-09-14T02:27:26.091Z,93
2022-09-14T02:28:33.113Z,93
2022-09-14T02:29:40.178Z,93
2022-09-14T02:30:47.343Z,93
2022-09-14T02:31:54.040Z,93
2022-09-14T02:33:00.963Z,93
2022-09-14T02:34:08.181Z,93
2022-09-14T02:35:15.186Z,93
2022-09-14T02:36:22.282Z,93
2022-09-14T02:37:28.867Z,93
2022-09-14T02:39:43.326Z,93
2022-09-14T02:40:50.215Z,93
2022-09-14T02:41:57.351Z,93
2022-09-14T02:43:03.885Z,93
2022-09-14T02:45:20.007Z,93
2022-09-14T02:46:25.318Z,93
2022-09-14T02:47:32.346Z,93
2022-09-14T02:48:38.948Z,93
2022-09-14T02:49:46.555Z,93
2022-09-14T02:50:53.117Z,93
2022-09-14T02:52:00.252Z,93
2022-09-14T02:53:06.807Z,93
2022-09-14T02:54:13.881Z,93
2022-09-14T02:55:20.986Z,93
2022-09-14T02:56:28.115Z,93
2022-09-14T02:57:35.258Z,93
2022-09-14T02:58:41.819Z,93
2022-09-14T02:59:48.987Z,93
2022-09-14T03:00:56.073Z,93
2022-09-14T03:02:03.224Z,93
2022-09-14T03:04:16.983Z,93
2022-09-14T03:05:23.973Z,93
2022-09-14T03:07:38.160Z,93
2022-09-14T03:08:45.270Z,93
2022-09-14T03:09:51.853Z,93
2022-09-14T03:10:58.906Z,93
2022-09-14T03:12:06.059Z,93
2022-09-14T03:13:13.187Z,93
2022-09-14T03:14:20.247Z,93
2022-09-14T03:15:27.000Z,93
2022-09-14T03:16:34.042Z,92
2022-09-14T03:17:41.048Z,92
2022-09-14T03:18:48.186Z,92
2022-09-14T03:19:55.262Z,92
2022-09-14T03:21:01.795Z,92
2022-09-14T03:22:08.989Z,92
2022-09-14T03:23:16.069Z,92
2022-09-14T03:24:23.191Z,92
2022-09-14T03:25:30.299Z,91
2022-09-14T03:26:37.445Z,91
2022-09-14T03:27:43.982Z,91
2022-09-14T03:28:51.099Z,91
2022-09-14T03:29:58.146Z,91
2022-09-14T03:31:04.977Z,91
2022-09-14T03:32:11.878Z,91
2022-09-14T03:33:19.011Z,91
2022-09-14T03:35:33.300Z,90
2022-09-14T03:36:40.619Z,90
2022-09-14T03:37:46.812Z,90
2022-09-14T03:38:53.990Z,90
2022-09-14T03:40:01.135Z,90
2022-09-14T03:42:16.370Z,89
2022-09-14T03:43:21.829Z,89
2022-09-14T03:45:36.160Z,88
2022-09-14T03:46:43.344Z,88
2022-09-14T03:48:56.895Z,88
2022-09-14T03:50:04.110Z,88
2022-09-14T03:51:11.111Z,88
2022-09-14T03:52:18.208Z,88
2022-09-14T03:53:24.802Z,88
2022-09-14T03:54:32.626Z,88
2022-09-14T03:55:39.002Z,88
2022-09-14T03:56:46.059Z,88
2022-09-14T03:57:53.170Z,88
2022-09-14T03:58:59.786Z,88
2022-09-14T04:00:06.930Z,88
2022-09-14T04:01:14.012Z,88
2022-09-14T04:02:21.061Z,88
2022-09-14T04:03:28.161Z,88
2022-09-14T04:04:34.819Z,88
2022-09-14T04:05:41.876Z,88
2022-09-14T04:06:49.528Z,88
2022-09-14T04:07:56.118Z,88
2022-09-14T04:09:02.686Z,87
2022-09-14T04:10:09.822Z,88
2022-09-14T04:11:16.973Z,88
2022-09-14T04:12:24.014Z,88
2022-09-14T04:13:31.104Z,87
2022-09-14T04:14:38.307Z,88
2022-09-14T04:15:44.915Z,88
2022-09-14T04:16:51.918Z,88
2022-09-14T04:17:59.566Z,88
2022-09-14T04:19:06.137Z,88
2022-09-14T04:20:13.311Z,88
2022-09-14T04:21:19.829Z,88
2022-09-14T04:22:26.902Z,88
2022-09-14T04:23:36.581Z,88
2022-09-14T04:24:41.089Z,88
2022-09-14T04:26:54.874Z,88
2022-09-14T04:28:19.556Z,88
2022-09-14T04:29:08.973Z,88
2022-09-14T04:31:23.331Z,88
2022-09-14T04:32:34.242Z,88
2022-09-14T04:33:36.952Z,88
2022-09-14T04:34:44.141Z,88
2022-09-14T04:35:51.187Z,88
2022-09-14T04:36:58.250Z,88
2022-09-14T04:38:04.811Z,88
2022-09-14T04:39:11.970Z,88
2022-09-14T04:40:19.169Z,88
2022-09-14T04:41:26.229Z,88
2022-09-14T04:42:33.249Z,88
2022-09-14T04:43:39.859Z,88
2022-09-14T04:44:46.976Z,88
2022-09-14T04:45:54.081Z,88
2022-09-14T04:47:01.299Z,88
2022-09-14T04:48:07.739Z,87
2022-09-14T04:49:14.884Z,87
2022-09-14T04:50:22.000Z,87
2022-09-14T04:52:36.197Z,87
2022-09-14T04:53:43.249Z,87
2022-09-14T04:54:49.828Z,87
2022-09-14T04:55:57.780Z,87
2022-09-14T04:57:04.050Z,87
2022-09-14T04:58:11.197Z,86
2022-09-14T04:59:17.741Z,86
2022-09-14T05:00:24.899Z,86
2022-09-14T05:01:32.070Z,86
2022-09-14T05:02:39.181Z,86
2022-09-14T05:03:46.217Z,86
2022-09-14T05:04:52.742Z,86
2022-09-14T05:05:59.841Z,86
2022-09-14T05:08:14.142Z,86
2022-09-14T05:10:28.798Z,85
2022-09-14T05:11:34.878Z,85
2022-09-14T05:12:42.117Z,85
2022-09-14T05:13:50.250Z,84
2022-09-14T05:14:56.208Z,84
2022-09-14T05:16:02.951Z,84
2022-09-14T05:17:09.941Z,83
2022-09-14T05:18:16.982Z,83
2022-09-14T05:19:24.110Z,83
2022-09-14T05:20:31.199Z,83
2022-09-14T05:21:37.806Z,83
2022-09-14T05:22:44.875Z,83
2022-09-14T05:23:51.999Z,83
2022-09-14T05:24:59.141Z,83
2022-09-14T05:26:06.158Z,83
2022-09-14T05:27:12.765Z,83
2022-09-14T05:28:19.953Z,83
2022-09-14T05:29:27.017Z,84
2022-09-14T05:30:34.135Z,83
2022-09-14T05:31:41.331Z,83
2022-09-14T05:32:47.826Z,83
2022-09-14T05:33:54.929Z,83
2022-09-14T05:35:02.037Z,83
2022-09-14T05:36:09.175Z,83
2022-09-14T05:37:16.215Z,83
2022-09-14T05:38:22.802Z,83
2022-09-14T05:39:29.918Z,83
2022-09-14T05:40:37.058Z,83
2022-09-14T05:41:45.771Z,83
2022-09-14T05:42:51.203Z,83
2022-09-14T05:43:57.826Z,83
2022-09-14T05:45:04.944Z,83
2022-09-14T05:46:12.690Z,83
2022-09-14T05:47:19.158Z,83
2022-09-14T05:49:32.923Z,83
2022-09-14T05:50:39.894Z,83
2022-09-14T05:51:47.038Z,83
2022-09-14T05:52:54.239Z,83
2022-09-14T05:54:01.235Z,83
2022-09-14T05:56:15.808Z,83
2022-09-14T05:57:22.038Z,83
2022-09-14T05:58:29.145Z,83
2022-09-14T05:59:35.741Z,83
2022-09-14T06:01:50.080Z,82
2022-09-14T06:02:57.061Z,82
2022-09-14T06:04:04.206Z,82
2022-09-14T06:05:10.871Z,82
2022-09-14T06:06:17.847Z,82
2022-09-14T06:07:24.970Z,82
2022-09-14T06:08:32.059Z,82
2022-09-14T06:09:39.209Z,82
2022-09-14T06:10:46.174Z,82
2022-09-14T06:11:52.881Z,82
2022-09-14T06:12:59.972Z,82
2022-09-14T06:14:07.602Z,82
2022-09-14T06:15:14.203Z,82
2022-09-14T06:16:20.757Z,82
2022-09-14T06:17:27.896Z,82
2022-09-14T06:18:35.108Z,82
2022-09-14T06:19:42.108Z,82
2022-09-14T06:20:49.215Z,82
2022-09-14T06:21:55.800Z,82
2022-09-14T06:23:02.869Z,82
2022-09-14T06:24:10.505Z,83
2022-09-14T06:25:17.063Z,83
2022-09-14T06:26:24.189Z,83
2022-09-14T06:27:30.757Z,83
2022-09-14T06:30:52.065Z,83
2022-09-14T06:31:59.189Z,83
2022-09-14T06:33:05.798Z,83
2022-09-14T06:34:12.929Z,83
2022-09-14T06:35:19.960Z,83
2022-09-14T06:36:27.071Z,83
2022-09-14T06:38:40.782Z,83
2022-09-14T06:39:47.940Z,83
2022-09-14T06:40:55.032Z,83
2022-09-14T06:42:02.043Z,83
2022-09-14T06:43:09.187Z,83
2022-09-14T06:44:15.876Z,82
2022-09-14T06:45:22.873Z,82
2022-09-14T06:46:29.991Z,82
2022-09-14T06:47:37.126Z,82
2022-09-14T06:48:44.350Z,82
2022-09-14T06:49:50.772Z,82
2022-09-14T06:50:57.900Z,82
2022-09-14T06:52:04.986Z,82
2022-09-14T06:53:12.239Z,82
2022-09-14T06:54:19.188Z,82
2022-09-14T06:55:25.798Z,82
2022-09-14T06:56:32.857Z,82
2022-09-14T06:57:43.035Z,82
2022-09-14T06:59:53.765Z,82
2022-09-14T07:01:00.761Z,82
2022-09-14T07:02:07.964Z,82
2022-09-14T07:03:15.174Z,82
2022-09-14T07:04:22.167Z,82
2022-09-14T07:05:28.769Z,82
2022-09-14T07:06:35.807Z,82
2022-09-14T07:07:42.938Z,82
2022-09-14T07:08:50.004Z,82
2022-09-14T07:09:57.186Z,15
2022-09-14T07:12:10.781Z,82
2022-09-14T07:13:17.960Z,82
2022-09-14T07:14:29.237Z,83
2022-09-14T07:15:32.202Z,83
2022-09-14T07:16:38.758Z,83
2022-09-14T07:17:46.310Z,83
2022-09-14T07:18:52.958Z,83
2022-09-14T07:19:59.510Z,83
2022-09-14T07:21:07.190Z,83
2022-09-14T07:22:13.803Z,83
2022-09-14T07:23:20.805Z,83
2022-09-14T07:24:27.932Z,83
2022-09-14T07:25:35.113Z,83
2022-09-14T07:26:42.292Z,83
2022-09-14T07:27:48.824Z,83
2022-09-14T07:28:55.830Z,83
2022-09-14T07:30:03.130Z,83
2022-09-14T07:31:09.647Z,83
2022-09-14T07:31:10.231Z,83
2022-09-14T07:32:17.210Z,83
2022-09-14T07:33:24.300Z,83
2022-09-14T07:34:30.806Z,83
2022-09-14T07:35:37.941Z,83
2022-09-14T07:36:45.106Z,83
2022-09-14T07:37:52.206Z,83
2022-09-14T07:38:58.810Z,83
2022-09-14T07:40:05.982Z,83
2022-09-14T07:41:12.972Z,82
2022-09-14T07:42:20.074Z,82
2022-09-14T07:43:27.192Z,82
2022-09-14T07:44:33.809Z,82
2022-09-14T07:45:40.903Z,82
2022-09-14T07:46:47.980Z,82
2022-09-14T07:47:55.087Z,82
2022-09-14T07:49:02.216Z,82
2022-09-14T07:50:08.787Z,82
2022-09-14T07:51:15.878Z,83
2022-09-14T07:53:30.117Z,82
2022-09-14T07:54:37.207Z,82
2022-09-14T07:55:43.755Z,82
2022-09-14T07:56:50.877Z,82
2022-09-14T07:57:57.985Z,82
2022-09-14T07:59:33.423Z,82
2022-09-14T08:00:12.222Z,81
2022-09-14T08:01:18.890Z,81
2022-09-14T08:03:33.016Z,81
2022-09-14T08:04:40.132Z,81
2022-09-14T08:06:53.818Z,81
2022-09-14T08:08:00.888Z,81
2022-09-14T08:09:08.041Z,81
2022-09-14T08:10:15.106Z,81
2022-09-14T08:11:21.701Z,80
2022-09-14T08:12:28.816Z,80
2022-09-14T08:13:36.271Z,80
2022-09-14T08:14:43.030Z,80
2022-09-14T08:15:50.175Z,80
2022-09-14T08:16:56.766Z,80
2022-09-14T08:18:03.816Z,80
2022-09-14T08:19:10.866Z,80
2022-09-14T08:20:18.029Z,80
2022-09-14T08:21:25.674Z,80
2022-09-14T08:22:31.751Z,79
2022-09-14T08:23:38.826Z,79
2022-09-14T08:24:45.891Z,78
2022-09-14T08:25:53.022Z,78
2022-09-14T08:28:06.759Z,78
2022-09-14T08:29:13.875Z,77
2022-09-14T08:30:20.904Z,77
2022-09-14T08:31:28.186Z,76
2022-09-14T08:32:35.201Z,76
2022-09-14T08:34:48.845Z,75
2022-09-14T08:35:58.306Z,75
2022-09-14T08:37:03.062Z,75
2022-09-14T08:38:09.690Z,75
2022-09-14T08:39:16.756Z,75
2022-09-14T08:40:23.958Z,75
2022-09-14T08:41:31.083Z,75
2022-09-14T08:42:38.602Z,75
2022-09-14T08:43:45.176Z,74
2022-09-14T08:44:51.758Z,74
2022-09-14T08:45:58.980Z,74
2022-09-14T08:47:05.979Z,74
2022-09-14T08:48:13.068Z,74
2022-09-14T08:49:20.153Z,74
2022-09-14T08:50:26.806Z,74
2022-09-14T08:51:33.886Z,74
2022-09-14T08:52:40.950Z,75
2022-09-14T08:53:48.249Z,75
2022-09-14T08:56:01.837Z,75
2022-09-14T08:57:08.917Z,75
2022-09-14T08:58:16.048Z,75
2022-09-14T08:59:23.305Z,76
2022-09-14T09:00:30.419Z,76
2022-09-14T09:01:36.737Z,76
2022-09-14T09:02:43.928Z,76
2022-09-14T09:03:51.042Z,76
2022-09-14T09:04:58.088Z,76
2022-09-14T09:06:04.686Z,77
2022-09-14T09:07:11.772Z,77
2022-09-14T09:08:18.858Z,77
2022-09-14T09:09:26.130Z,77
2022-09-14T09:10:34.298Z,77
2022-09-14T09:11:40.166Z,77
2022-09-14T09:12:46.797Z,77
2022-09-14T09:13:55.098Z,77
2022-09-14T09:16:08.145Z,78
2022-09-14T09:17:14.714Z,78
2022-09-14T09:18:21.806Z,78
2022-09-14T09:19:28.956Z,78
2022-09-14T09:20:44.126Z,78
2022-09-14T09:21:46.034Z,78
2022-09-14T09:22:49.730Z,78
2022-09-14T09:23:56.815Z,78
2022-09-14T09:25:04.439Z,78
2022-09-14T09:26:10.988Z,78
2022-09-14T09:27:18.304Z,78
2022-09-14T09:28:24.732Z,77
2022-09-14T09:29:31.818Z,77
2022-09-14T09:30:38.922Z,77
2022-09-14T09:31:46.923Z,77
2022-09-14T09:32:52.687Z,77
2022-09-14T09:35:06.805Z,77
2022-09-14T09:36:13.893Z,77
2022-09-14T09:41:48.881Z,78
2022-09-14T09:42:56.097Z,78
2022-09-14T09:44:03.191Z,78
2022-09-14T09:45:10.132Z,78
2022-09-14T09:46:17.323Z,79
2022-09-14T09:47:24.006Z,78
2022-09-14T09:48:33.199Z,78
2022-09-14T09:49:39.106Z,78
2022-09-14T09:50:44.696Z,78
2022-09-14T09:55:12.991Z,77
2022-09-14T09:57:26.413Z,77
2022-09-14T09:58:34.026Z,77
2022-09-14T10:00:48.227Z,78
2022-09-14T10:01:54.859Z,78
2022-09-14T10:03:01.820Z,78
2022-09-14T10:04:11.677Z,78
2022-09-14T10:05:16.069Z,78
2022-09-14T10:06:22.662Z,78
2022-09-14T10:07:29.713Z,78
2022-09-14T10:08:36.891Z,78
2022-09-14T10:10:51.046Z,78
2022-09-14T10:11:57.672Z,78
2022-09-14T10:13:04.759Z,78
2022-09-14T10:14:12.926Z,78
2022-09-14T10:15:18.975Z,78
2022-09-14T10:16:26.143Z,78
2022-09-14T10:17:32.704Z,78
2022-09-14T10:18:39.856Z,78
2022-09-14T10:19:46.885Z,78
2022-09-14T10:20:53.982Z,78
2022-09-14T10:22:01.120Z,78
2022-09-14T10:23:07.657Z,78
2022-09-14T10:24:14.791Z,78
2022-09-14T10:26:29.005Z,78
2022-09-14T10:27:38.015Z,78
2022-09-14T10:28:43.277Z,78
2022-09-14T10:29:49.757Z,78
2022-09-14T10:30:57.007Z,77
2022-09-14T10:32:04.091Z,77
2022-09-14T10:33:11.068Z,77
2022-09-14T10:34:17.686Z,77
2022-09-14T10:35:24.795Z,77
2022-09-14T10:36:31.939Z,76
2022-09-14T10:38:46.138Z,75
2022-09-14T10:39:52.746Z,75
2022-09-14T10:40:59.910Z,75
2022-09-14T10:42:06.917Z,75
2022-09-14T10:43:14.002Z,75
2022-09-14T10:44:21.119Z,74
2022-09-14T10:45:27.691Z,74
2022-09-14T10:46:34.857Z,74
2022-09-14T10:47:41.926Z,74
2022-09-14T10:48:49.055Z,74
2022-09-14T10:49:56.135Z,73
2022-09-14T10:51:02.712Z,73
2022-09-14T10:52:09.841Z,73
2022-09-14T10:53:16.407Z,73
2022-09-14T10:54:24.027Z,72
2022-09-14T10:55:31.668Z,72
2022-09-14T10:56:37.747Z,72
2022-09-14T10:57:44.842Z,72
2022-09-14T10:58:51.913Z,72
2022-09-14T10:59:59.040Z,72
2022-09-14T11:01:05.608Z,72
2022-09-14T11:03:19.918Z,71
2022-09-14T11:04:26.951Z,71
2022-09-14T11:05:34.009Z,71
2022-09-14T11:06:40.578Z,70
2022-09-14T11:07:47.721Z,70
2022-09-14T11:08:54.865Z,70
2022-09-14T11:10:01.919Z,70
2022-09-14T11:11:11.449Z,69
2022-09-14T11:12:16.246Z,69
2022-09-14T11:14:29.889Z,69
2022-09-14T11:15:36.991Z,69
2022-09-14T11:16:44.062Z,69
2022-09-14T11:17:50.774Z,68
2022-09-14T11:20:04.920Z,68
2022-09-14T11:22:19.060Z,67
2022-09-14T11:23:25.787Z,68
2022-09-14T11:24:32.776Z,68
2022-09-14T11:25:39.847Z,67
2022-09-14T11:26:46.979Z,67
2022-09-14T11:27:54.073Z,67
2022-09-14T11:29:00.660Z,67
2022-09-14T11:30:07.822Z,67
2022-09-14T11:31:15.480Z,67
2022-09-14T11:32:22.729Z,67
2022-09-14T11:33:31.228Z,67
2022-09-14T11:34:35.660Z,67
2022-09-14T11:35:42.786Z,66
2022-09-14T11:36:51.029Z,66
2022-09-14T11:37:56.992Z,66
2022-09-14T11:39:06.863Z,66
2022-09-14T11:40:10.761Z,67
2022-09-14T11:41:17.782Z,66
2022-09-14T11:42:24.922Z,66
2022-09-14T11:43:32.004Z,66
2022-09-14T11:44:38.587Z,66
2022-09-14T11:45:45.709Z,66
2022-09-14T11:46:52.810Z,66
2022-09-14T11:48:00.010Z,66
2022-09-14T11:50:13.595Z,66
2022-09-14T11:51:20.668Z,66
2022-09-14T11:52:27.802Z,66
2022-09-14T11:53:36.258Z,66
2022-09-14T11:54:46.665Z,66
2022-09-14T11:55:48.631Z,66
2022-09-14T11:56:55.748Z,66
2022-09-14T11:58:02.797Z,66
2022-09-14T11:59:10.052Z,66
2022-09-14T12:01:24.152Z,66
2022-09-14T12:02:30.708Z,66
2022-09-14T12:03:37.880Z,66
2022-09-14T12:04:45.071Z,67
2022-09-14T12:05:52.065Z,67
2022-09-14T12:06:58.587Z,67
2022-09-14T12:08:05.742Z,67
2022-09-14T12:09:12.785Z,67
2022-09-14T12:10:19.972Z,67
2022-09-14T12:11:27.119Z,67
2022-09-14T12:12:33.584Z,68
2022-09-14T12:13:40.712Z,68
2022-09-14T12:14:47.841Z,68
2022-09-14T12:15:55.062Z,68
2022-09-14T12:18:09.695Z,68
2022-09-14T12:19:15.755Z,68
2022-09-14T12:20:22.871Z,69
2022-09-14T12:21:30.030Z,69
2022-09-14T12:22:37.102Z,69
2022-09-14T12:23:44.740Z,69
2022-09-14T12:24:50.714Z,69
2022-09-14T12:25:57.812Z,69
2022-09-14T12:27:05.069Z,69
2022-09-14T12:28:12.022Z,69
2022-09-14T12:29:18.660Z,69
2022-09-14T12:31:32.996Z,69
2022-09-14T12:32:40.005Z,68
2022-09-14T12:33:47.096Z,69
2022-09-14T12:34:53.606Z,69
2022-09-14T12:36:01.294Z,69
2022-09-14T12:37:11.931Z,69
2022-09-14T12:38:14.978Z,68
2022-09-14T12:39:21.515Z,68
2022-09-14T12:40:28.666Z,68
2022-09-14T12:42:42.879Z,68
2022-09-14T12:43:50.353Z,68
2022-09-14T12:44:56.571Z,68
2022-09-14T12:46:03.725Z,68
2022-09-14T12:47:10.704Z,68
2022-09-14T12:48:17.890Z,67
2022-09-14T12:49:24.984Z,67
2022-09-14T12:50:31.576Z,67
2022-09-14T12:51:38.649Z,67
2022-09-14T12:52:45.764Z,67
2022-09-14T12:53:52.887Z,67
2022-09-14T12:55:00.024Z,67
2022-09-14T12:56:06.577Z,67
2022-09-14T12:57:13.689Z,67
2022-09-14T12:58:20.789Z,67
2022-09-14T12:59:28.503Z,67
2022-09-14T13:00:39.620Z,67
2022-09-14T13:01:41.674Z,67
2022-09-14T13:02:49.043Z,67
2022-09-14T13:03:55.782Z,67
2022-09-14T13:05:02.883Z,67
2022-09-14T13:06:10.017Z,67
2022-09-14T13:07:17.122Z,67
2022-09-14T13:08:23.730Z,67
2022-09-14T13:09:30.794Z,67
2022-09-14T13:10:37.915Z,67
2022-09-14T13:11:44.984Z,67
2022-09-14T13:12:52.161Z,67
2022-09-14T13:13:58.772Z,67
2022-09-14T13:15:05.845Z,67
2022-09-14T13:16:12.959Z,67
2022-09-14T13:17:20.008Z,66
2022-09-14T13:18:26.590Z,66
2022-09-14T13:21:47.997Z,66
2022-09-14T13:24:01.760Z,66
2022-09-14T13:25:08.709Z,66
2022-09-14T13:26:15.834Z,66
2022-09-14T13:27:22.949Z,66
2022-09-14T13:28:30.025Z,66
2022-09-14T13:29:36.733Z,66
2022-09-14T13:30:43.752Z,66
2022-09-14T13:31:50.803Z,66
2022-09-14T13:32:57.949Z,66
2022-09-14T13:34:05.084Z,66
2022-09-14T13:35:11.653Z,66
2022-09-14T13:36:19.260Z,66
2022-09-14T13:37:26.609Z,66
2022-09-14T13:38:32.894Z,66
2022-09-14T13:39:40.682Z,66
2022-09-14T13:40:47.666Z,66
2022-09-14T13:41:53.867Z,66
2022-09-14T13:43:00.852Z,66
2022-09-14T13:44:07.893Z,66
2022-09-14T13:45:15.047Z,66
2022-09-14T13:46:21.713Z,66
2022-09-14T13:48:36.676Z,67
2022-09-14T13:49:43.014Z,67
2022-09-14T13:50:50.076Z,67
2022-09-14T13:51:56.673Z,67
2022-09-14T13:53:04.271Z,67
2022-09-14T13:54:11.615Z,67
2022-09-14T13:55:18.764Z,67
2022-09-14T13:56:25.065Z,67
2022-09-14T13:57:31.979Z,67
2022-09-14T13:58:38.746Z,67
2022-09-14T13:59:45.925Z,67
2022-09-14T14:00:53.004Z,67
2022-09-14T14:02:00.780Z,67
2022-09-14T14:03:06.749Z,67
2022-09-14T14:05:21.017Z,66
2022-09-14T14:06:27.946Z,67
2022-09-14T14:07:35.414Z,66
2022-09-14T14:08:41.641Z,67
2022-09-14T14:09:48.875Z,67
2022-09-14T14:10:56.438Z,67
2022-09-14T14:12:02.944Z,67
2022-09-14T14:13:09.923Z,67
2022-09-14T14:14:16.718Z,67
2022-09-14T14:16:30.972Z,67
2022-09-14T14:17:37.921Z,68
2022-09-14T14:18:44.550Z,68
2022-09-14T14:19:52.416Z,68
2022-09-14T14:20:58.743Z,68
2022-09-14T14:22:05.981Z,68
2022-09-14T14:23:12.972Z,68
2022-09-14T14:25:27.446Z,68
2022-09-14T14:26:33.772Z,68
2022-09-14T14:27:40.828Z,69
2022-09-14T14:28:48.521Z,69
2022-09-14T14:29:54.550Z,69
2022-09-14T14:31:08.679Z,69
2022-09-14T14:32:08.799Z,70
2022-09-14T14:33:19.358Z,70
2022-09-14T14:34:23.166Z,70
2022-09-14T14:35:30.156Z,70
2022-09-14T14:36:36.786Z,70
2022-09-14T14:37:45.036Z,70
2022-09-14T14:38:51.053Z,70
2022-09-14T14:39:58.235Z,69
2022-09-14T14:41:04.656Z,69
2022-09-14T14:42:11.783Z,69
2022-09-14T14:44:25.872Z,70
2022-09-14T14:45:35.992Z,70
2022-09-14T14:46:39.680Z,69
2022-09-14T14:47:47.227Z,69
2022-09-14T14:48:53.980Z,69
2022-09-14T14:50:00.649Z,69
2022-09-14T14:51:08.171Z,69
2022-09-14T14:52:14.722Z,69
2022-09-14T14:53:21.769Z,69
2022-09-14T14:54:30.939Z,70
2022-09-14T14:55:36.014Z,69
2022-09-14T14:56:42.975Z,69
2022-09-14T14:57:49.910Z,69
2022-09-14T14:59:02.049Z,69
2022-09-14T15:00:03.759Z,69
2022-09-14T15:01:11.200Z,69
2022-09-14T15:02:19.252Z,69
2022-09-14T15:03:25.184Z,69
2022-09-14T15:04:32.967Z,69
2022-09-14T15:05:39.071Z,69
2022-09-14T15:06:45.921Z,70
2022-09-14T15:07:52.510Z,70
2022-09-14T15:08:59.859Z,70
2022-09-14T15:10:06.712Z,70
2022-09-14T15:11:13.805Z,69
2022-09-14T15:12:21.164Z,69
2022-09-14T15:13:27.504Z,69
2022-09-14T15:14:35.096Z,69
2022-09-14T15:15:41.681Z,69
2022-09-14T15:16:48.980Z,69
2022-09-14T15:17:55.509Z,69
2022-09-14T15:19:03.236Z,69
2022-09-14T15:20:10.342Z,69
2022-09-14T15:21:16.717Z,69
2022-09-14T15:22:23.918Z,69
2022-09-14T15:23:31.019Z,70
2022-09-14T15:24:37.527Z,70
2022-09-14T15:25:45.039Z,70
2022-09-14T15:26:51.803Z,70
2022-09-14T15:29:06.068Z,70
2022-09-14T15:30:12.581Z,70
2022-09-14T15:31:19.767Z,70
2022-09-14T15:32:26.740Z,70
2022-09-14T15:33:33.955Z,70
2022-09-14T15:34:40.495Z,70
2022-09-14T15:35:47.672Z,70
2022-09-14T15:36:54.710Z,70
2022-09-14T15:38:01.960Z,70
2022-09-14T15:39:08.933Z,70
2022-09-14T15:40:16.130Z,70
2022-09-14T15:41:22.508Z,70
2022-09-14T15:42:29.729Z,70
2022-09-14T15:43:36.894Z,71
2022-09-14T15:44:44.480Z,71
2022-09-14T15:46:58.170Z,70
2022-09-14T15:48:04.648Z,70
2022-09-14T15:49:11.863Z,70
2022-09-14T15:50:18.981Z,70
2022-09-14T15:51:25.626Z,70
2022-09-14T15:52:32.528Z,70
2022-09-14T15:53:39.790Z,70
2022-09-14T15:54:47.030Z,70
2022-09-14T15:55:53.874Z,70
2022-09-14T15:57:00.600Z,70
2022-09-14T15:58:07.574Z,70
2022-09-14T15:59:14.885Z,70
2022-09-14T16:00:21.851Z,70
2022-09-14T16:01:28.912Z,70
2022-09-14T16:02:35.613Z,70
2022-09-14T16:04:49.688Z,70
2022-09-14T16:05:57.122Z,69
2022-09-14T16:07:03.943Z,69
2022-09-14T16:08:10.543Z,68
2022-09-14T16:09:17.700Z,68
2022-09-14T16:10:24.696Z,68
2022-09-14T16:11:31.861Z,69
2022-09-14T16:12:38.962Z,69
2022-09-14T16:14:52.715Z,69
2022-09-14T16:15:59.766Z,69
2022-09-14T16:17:07.453Z,69
2022-09-14T16:18:13.990Z,69
2022-09-14T16:19:20.700Z,70
2022-09-14T16:20:27.660Z,70
2022-09-14T16:21:34.704Z,70
2022-09-14T16:22:41.789Z,70
2022-09-14T16:23:48.874Z,70
2022-09-14T16:24:55.543Z,70
2022-09-14T16:26:03.147Z,70
2022-09-14T16:27:09.752Z,70
2022-09-14T16:28:16.815Z,70
2022-09-14T16:29:24.011Z,71
2022-09-14T16:30:30.532Z,71
2022-09-14T16:32:44.804Z,71
2022-09-14T16:33:51.979Z,71
2022-09-14T16:34:59.000Z,71
2022-09-14T16:36:05.681Z,71
2022-09-14T16:37:12.779Z,71
2022-09-14T16:38:20.304Z,70
2022-09-14T16:39:26.826Z,70
2022-09-14T16:40:33.609Z,70
2022-09-14T16:41:40.551Z,70
2022-09-14T16:42:47.688Z,70
2022-09-14T16:43:54.791Z,70
2022-09-14T16:45:01.903Z,69
2022-09-14T16:46:08.541Z,69
2022-09-14T16:47:15.603Z,69
2022-09-14T16:48:22.626Z,69
2022-09-14T16:49:29.759Z,69
2022-09-14T16:50:36.857Z,69
2022-09-14T16:51:43.594Z,69
2022-09-14T16:52:50.561Z,69
2022-09-14T16:53:57.700Z,69
2022-09-14T16:55:05.375Z,69
2022-09-14T16:56:11.824Z,69
2022-09-14T16:57:18.933Z,69
2022-09-14T16:58:25.599Z,69
2022-09-14T16:59:32.720Z,69
2022-09-14T17:00:44.087Z,69
2022-09-14T17:01:49.672Z,69
2022-09-14T17:02:53.536Z,69
2022-09-14T17:04:00.608Z,70
2022-09-14T17:05:07.780Z,70
2022-09-14T17:06:15.199Z,70
2022-09-14T17:07:22.495Z,70
2022-09-14T17:08:28.956Z,70
2022-09-14T17:09:35.600Z,70
2022-09-14T17:10:42.665Z,70
2022-09-14T17:11:50.091Z,70